Time,TemperatureF,DewpointF,PressureIn,WindDirection,WindDirectionDegrees,WindSpeedMPH,WindSpeedGustMPH,Humidity,HourlyPrecipIn,Conditions,Clouds,dailyrainin,SoftwareType,DateUTC
2013-11-18 00:21:00,39.0,17.0,30.08,South,178,2.0,-999.0,41,-99.99,,,-99.99,,2013-11-18 07:21:00,
2013-11-18 00:42:00,36.0,18.0,30.08,South,178,1.0,-999.0,47,-99.99,,,-99.99,,2013-11-18 07:42:00,
2013-11-18 00:52:00,40.0,17.0,30.08,South,177,4.0,-999.0,39,-99.99,,,-99.99,,2013-11-18 07:52:00,
2013-11-18 01:22:00,41.0,15.0,30.04,South,175,4.0,-999.0,35,-99.99,,,-99.99,,2013-11-18 08:22:00,
2013-11-18 01:52:00,34.0,17.0,30.05,NE,54,2.0,-999.0,49,-99.99,,,-99.99,,2013-11-18 08:52:00,
2013-11-18 02:12:00,33.0,17.0,30.05,NE,54,2.0,-999.0,51,-99.99,,,-99.99,,2013-11-18 09:12:00,
2013-11-18 02:22:00,32.0,16.0,30.06,NE,54,2.0,-999.0,52,-99.99,,,-99.99,,2013-11-18 09:22:00,
2013-11-18 02:53:00,31.0,15.0,30.10,NE,54,2.0,-999.0,51,-99.99,,,-99.99,,2013-11-18 09:53:00,
2013-11-18 03:23:00,31.0,14.0,30.10,NE,54,3.0,-999.0,49,-99.99,,,-99.99,,2013-11-18 10:23:00,
2013-11-18 03:53:00,31.0,14.0,30.09,NE,54,2.0,-999.0,48,-99.99,,,-99.99,,2013-11-18 10:53:00,
2013-11-18 04:22:00,30.0,13.0,30.09,NE,54,3.0,-999.0,48,-99.99,,,-99.99,,2013-11-18 11:22:00,
2013-11-18 04:52:00,30.0,13.0,30.11,NE,54,3.0,-999.0,48,-99.99,,,-99.99,,2013-11-18 11:52:00,
2013-11-18 05:22:00,30.0,14.0,30.12,NE,54,3.0,-999.0,51,-99.99,,,-99.99,,2013-11-18 12:22:00,
2013-11-18 05:42:00,30.0,15.0,30.12,NE,54,3.0,-999.0,52,-99.99,,,-99.99,,2013-11-18 12:42:00,
2013-11-18 05:52:00,29.0,14.0,30.13,ENE,62,3.0,-999.0,53,-99.99,,,-99.99,,2013-11-18 12:52:00,
2013-11-18 06:21:00,28.0,14.0,30.14,ENE,67,1.0,-999.0,55,-99.99,,,-99.99,,2013-11-18 13:21:00,
2013-11-18 06:42:00,28.0,14.0,30.14,ENE,67,2.0,-999.0,56,-99.99,,,-99.99,,2013-11-18 13:42:00,
2013-11-18 06:52:00,27.0,14.0,30.13,ENE,67,2.0,-999.0,58,-99.99,,,-99.99,,2013-11-18 13:52:00,
2013-11-18 07:22:00,28.0,15.0,30.13,ENE,67,2.0,-999.0,57,-99.99,,,-99.99,,2013-11-18 14:22:00,
2013-11-18 07:52:00,32.0,14.0,30.13,South,186,4.0,-999.0,47,-99.99,,,-99.99,,2013-11-18 14:52:00,
2013-11-18 08:22:00,36.0,16.0,30.14,South,186,0.0,-999.0,44,-99.99,,,-99.99,,2013-11-18 15:22:00,
2013-11-18 08:43:00,36.0,17.0,30.14,South,186,0.0,-999.0,46,-99.99,,,-99.99,,2013-11-18 15:43:00,
2013-11-18 08:54:00,38.0,16.0,30.15,South,186,3.0,-999.0,40,-99.99,,,-99.99,,2013-11-18 15:54:00,
2013-11-18 09:23:00,41.0,17.0,30.15,South,186,3.0,-999.0,38,-99.99,,,-99.99,,2013-11-18 16:23:00,
2013-11-18 09:43:00,41.0,17.0,30.15,South,178,3.0,-999.0,37,-99.99,,,-99.99,,2013-11-18 16:43:00,
2013-11-18 09:52:00,45.0,15.0,30.16,South,178,0.0,-999.0,30,-99.99,,,-99.99,,2013-11-18 16:52:00,
2013-11-18 10:22:00,50.0,14.0,30.15,South,177,0.0,-999.0,23,-99.99,,,-99.99,,2013-11-18 17:22:00,
2013-11-18 10:43:00,53.0,15.0,30.15,South,178,0.0,-999.0,22,-99.99,,,-99.99,,2013-11-18 17:43:00,
2013-11-18 10:52:00,54.0,15.0,30.14,South,178,1.0,-999.0,21,-99.99,,,-99.99,,2013-11-18 17:52:00,
2013-11-18 11:23:00,57.0,15.0,30.12,South,178,2.0,-999.0,19,-99.99,,,-99.99,,2013-11-18 18:23:00,
2013-11-18 11:52:00,58.0,12.0,30.11,South,178,2.0,-999.0,16,-99.99,,,-99.99,,2013-11-18 18:52:00,
2013-11-18 12:21:00,60.0,7.0,30.09,South,177,2.0,-999.0,12,-99.99,,,-99.99,,2013-11-18 19:21:00,
2013-11-18 12:42:00,60.0,7.0,30.09,South,177,3.0,-999.0,12,-99.99,,,-99.99,,2013-11-18 19:42:00,
2013-11-18 13:21:00,62.0,7.0,30.08,South,177,3.0,-999.0,11,-99.99,,,-99.99,,2013-11-18 20:21:00,
2013-11-18 13:42:00,63.0,8.0,30.08,South,178,2.0,-999.0,11,-99.99,,,-99.99,,2013-11-18 20:42:00,
2013-11-18 13:52:00,64.0,6.0,30.07,South,178,2.0,-999.0,10,-99.99,,,-99.99,,2013-11-18 20:52:00,
2013-11-18 14:22:00,64.0,10.0,30.06,South,175,1.0,-999.0,12,-99.99,,,-99.99,,2013-11-18 21:22:00,
2013-11-18 14:54:00,64.0,4.0,30.05,South,175,3.0,-999.0,9,-99.99,,,-99.99,,2013-11-18 21:54:00,
2013-11-18 15:22:00,65.0,7.0,30.04,South,175,1.0,-999.0,10,-99.99,,,-99.99,,2013-11-18 22:22:00,
2013-11-18 15:53:00,63.0,19.0,30.04,South,175,2.0,-999.0,18,-99.99,,,-99.99,,2013-11-18 22:53:00,
2013-11-18 16:21:00,63.0,18.0,30.04,South,175,3.0,-999.0,17,-99.99,,,-99.99,,2013-11-18 23:21:00,
2013-11-18 16:42:00,62.0,17.0,30.04,South,172,3.0,-999.0,17,-99.99,,,-99.99,,2013-11-18 23:42:00,
2013-11-18 16:52:00,60.0,14.0,30.04,South,171,4.0,-999.0,16,-99.99,,,-99.99,,2013-11-18 23:52:00,
2013-11-18 17:21:00,57.0,14.0,30.04,South,171,4.0,-999.0,18,-99.99,,,-99.99,,2013-11-19 00:21:00,
2013-11-18 17:42:00,57.0,16.0,30.04,South,171,2.0,-999.0,20,-99.99,,,-99.99,,2013-11-19 00:42:00,
2013-11-18 17:52:00,56.0,14.0,30.05,South,171,3.0,-999.0,19,-99.99,,,-99.99,,2013-11-19 00:52:00,
2013-11-18 18:21:00,54.0,10.0,30.06,South,171,0.0,-999.0,17,-99.99,,,-99.99,,2013-11-19 01:21:00,
2013-11-18 18:42:00,53.0,9.0,30.06,South,171,2.0,-999.0,17,-99.99,,,-99.99,,2013-11-19 01:42:00,
2013-11-18 18:52:00,52.0,13.0,30.06,South,176,2.0,-999.0,21,-99.99,,,-99.99,,2013-11-19 01:52:00,
2013-11-18 19:22:00,49.0,17.0,30.06,South,184,0.0,-999.0,28,-99.99,,,-99.99,,2013-11-19 02:22:00,
2013-11-18 19:42:00,49.0,18.0,30.06,South,184,0.0,-999.0,29,-99.99,,,-99.99,,2013-11-19 02:42:00,
2013-11-18 19:52:00,48.0,19.0,30.06,South,184,0.0,-999.0,31,-99.99,,,-99.99,,2013-11-19 02:52:00,
2013-11-18 20:21:00,47.0,18.0,30.07,South,184,0.0,-999.0,31,-99.99,,,-99.99,,2013-11-19 03:21:00,
2013-11-18 20:54:00,47.0,17.0,30.06,South,184,0.0,-999.0,30,-99.99,,,-99.99,,2013-11-19 03:54:00,
2013-11-18 21:13:00,46.0,16.0,30.06,South,184,0.0,-999.0,29,-99.99,,,-99.99,,2013-11-19 04:13:00,
2013-11-18 21:23:00,46.0,15.0,30.07,South,184,0.0,-999.0,28,-99.99,,,-99.99,,2013-11-19 04:23:00,
2013-11-18 21:42:00,45.0,15.0,30.07,South,184,0.0,-999.0,30,-99.99,,,-99.99,,2013-11-19 04:42:00,
2013-11-18 21:52:00,46.0,14.0,30.06,South,184,0.0,-999.0,27,-99.99,,,-99.99,,2013-11-19 04:52:00,
2013-11-18 22:22:00,44.0,15.0,30.06,South,184,0.0,-999.0,30,-99.99,,,-99.99,,2013-11-19 05:22:00,
2013-11-18 22:43:00,44.0,14.0,30.06,South,184,0.0,-999.0,29,-99.99,,,-99.99,,2013-11-19 05:43:00,
2013-11-18 22:53:00,42.0,14.0,30.05,South,184,0.0,-999.0,31,-99.99,,,-99.99,,2013-11-19 05:53:00,
2013-11-18 23:21:00,39.0,16.0,30.04,South,184,2.0,-999.0,38,-99.99,,,-99.99,,2013-11-19 06:21:00,
2013-11-18 23:52:00,40.0,13.0,30.04,South,184,0.0,-999.0,33,-99.99,,,-99.99,,2013-11-19 06:52:00,